createdAt,value
2022-09-15T07:38:54.993Z,99.90
2022-09-15T07:49:01.823Z,99.90
2022-09-15T07:59:03.798Z,99.90
2022-09-15T08:09:05.685Z,99.90
2022-09-15T08:19:08.341Z,99.90
2022-09-15T08:29:10.039Z,99.90
2022-09-15T08:39:12.359Z,99.90
2022-09-15T08:49:47.482Z,99.90
2022-09-15T08:59:48.738Z,99.90
2022-09-15T09:10:14.978Z,99.90
2022-09-15T09:20:29.001Z,90.60
2022-09-15T09:30:35.786Z,96.60
2022-09-15T09:40:43.281Z,99.00
2022-09-15T09:50:51.118Z,93.60
2022-09-15T10:00:55.121Z,98.10
2022-09-15T10:11:03.975Z,82.80
2022-09-15T10:21:09.460Z,84.80
2022-09-15T10:31:20.216Z,74.70
2022-09-15T10:41:41.700Z,79.30
2022-09-15T10:51:57.910Z,71.70
2022-09-15T11:02:57.198Z,53.30
2022-09-15T11:13:35.080Z,48.70
2022-09-15T11:24:14.879Z,56.40
2022-09-15T11:34:34.360Z,53.80
2022-09-15T11:44:47.098Z,37.20
2022-09-15T11:54:54.199Z,39.70
2022-09-15T12:05:31.198Z,38.30
2022-09-15T12:15:34.022Z,41.20
2022-09-15T12:26:04.718Z,44.40
2022-09-15T12:36:38.835Z,46.10
2022-09-15T12:46:53.149Z,42.30
2022-09-15T12:56:58.536Z,33.90
2022-09-15T13:07:18.358Z,33.10
2022-09-15T13:17:27.819Z,29.10
2022-09-15T13:27:43.919Z,20.40
2022-09-15T13:38:16.945Z,21.70
2022-09-15T13:48:31.778Z,26.20
2022-09-15T14:09:01.803Z,26.30
2022-09-15T14:19:05.698Z,26.40
2022-09-15T14:29:09.637Z,22.50
2022-09-15T14:39:26.015Z,27.20
2022-09-15T14:49:28.300Z,21.00
2022-09-15T14:59:53.895Z,25.20
2022-09-15T15:10:05.462Z,29.40
2022-09-15T15:20:13.421Z,28.00
2022-09-15T15:30:33.816Z,28.00
2022-09-15T15:40:37.777Z,34.30
2022-09-15T15:50:40.138Z,33.40
2022-09-15T16:00:50.339Z,35.40
2022-09-15T16:10:57.402Z,39.60
2022-09-15T16:20:59.318Z,41.20
2022-09-15T16:31:02.259Z,40.60
2022-09-15T16:41:05.317Z,42.10
2022-09-15T16:51:30.914Z,48.90
2022-09-15T17:01:45.620Z,49.80
2022-09-15T17:11:48.658Z,53.80
2022-09-15T17:21:52.575Z,60.40
2022-09-15T17:31:55.518Z,63.10
2022-09-15T17:41:58.104Z,69.20
2022-09-15T17:51:59.961Z,73.30
2022-09-15T18:02:04.106Z,79.30
2022-09-15T18:12:06.512Z,76.80
2022-09-15T18:22:09.757Z,76.20
2022-09-15T18:32:12.397Z,75.20
2022-09-15T18:42:14.415Z,79.00
2022-09-15T18:52:16.400Z,75.50
2022-09-15T19:02:20.099Z,80.80
2022-09-15T19:12:23.453Z,87.80
2022-09-15T19:22:25.455Z,95.70
2022-09-15T19:32:27.655Z,96.20
2022-09-15T19:42:29.418Z,78.00
2022-09-15T19:52:31.702Z,58.30
2022-09-15T20:02:35.352Z,56.30
2022-09-15T20:12:37.419Z,65.00
2022-09-15T20:22:39.176Z,70.20
2022-09-15T20:32:41.094Z,75.80
2022-09-15T20:42:43.016Z,74.60
2022-09-15T20:52:44.799Z,78.70
2022-09-15T21:02:47.455Z,76.90
2022-09-15T21:12:49.157Z,81.60
2022-09-15T21:22:58.175Z,69.60
2022-09-15T21:33:00.717Z,69.70
2022-09-15T21:43:02.634Z,71.90
2022-09-15T21:53:04.695Z,76.50
2022-09-15T22:03:06.839Z,81.30
2022-09-15T22:13:10.335Z,76.30
2022-09-15T22:23:11.838Z,79.20
2022-09-15T22:33:13.636Z,76.00
2022-09-15T22:43:15.776Z,77.90
2022-09-15T22:53:18.058Z,73.70
2022-09-15T23:03:20.296Z,69.50
2022-09-15T23:13:22.450Z,72.00
2022-09-15T23:23:25.017Z,84.40
2022-09-15T23:33:29.417Z,84.60
2022-09-15T23:43:31.275Z,75.30
2022-09-15T23:53:33.457Z,78.60
